sensor_id;sensor_type;location;lat;lon;timestamp;pressure;altitude;pressure_sealevel;temperature;humidity
33075;BME280;19433;51.292;6.868;2023-02-10T00:02:13;102312.81;;;2.64;100.00
33075;BME280;19433;51.292;6.868;2023-02-10T00:04:38;102320.66;;;2.81;100.00
33075;BME280;19433;51.292;6.868;2023-02-10T00:07:03;102321.75;;;2.79;100.00
33075;BME280;19433;51.292;6.868;2023-02-10T00:09:28;102323.09;;;2.73;100.00
33075;BME280;19433;51.292;6.868;2023-02-10T00:11:54;102324.19;;;2.71;100.00
33075;BME280;19433;51.292;6.868;2023-02-10T00:14:22;102327.78;;;2.59;100.00
33075;BME280;19433;51.292;6.868;2023-02-10T00:16:50;102319.69;;;2.57;100.00
33075;BME280;19433;51.292;6.868;2023-02-10T00:19:16;102324.78;;;2.49;100.00
33075;BME280;19433;51.292;6.868;2023-02-10T00:21:41;102321.09;;;2.50;100.00
33075;BME280;19433;51.292;6.868;2023-02-10T00:24:06;102325.16;;;2.57;100.00
33075;BME280;19433;51.292;6.868;2023-02-10T00:26:31;102326.44;;;2.52;100.00
33075;BME280;19433;51.292;6.868;2023-02-10T00:28:57;102340.53;;;2.71;100.00
33075;BME280;19433;51.292;6.868;2023-02-10T00:31:23;102329.94;;;2.54;100.00
33075;BME280;19433;51.292;6.868;2023-02-10T00:33:48;102326.13;;;2.43;100.00
33075;BME280;19433;51.292;6.868;2023-02-10T00:36:15;102329.25;;;2.37;100.00
33075;BME280;19433;51.292;6.868;2023-02-10T00:38:40;102334.16;;;2.45;100.00
33075;BME280;19433;51.292;6.868;2023-02-10T00:41:09;102319.00;;;2.28;100.00
33075;BME280;19433;51.292;6.868;2023-02-10T00:43:34;102331.03;;;2.51;100.00
33075;BME280;19433;51.292;6.868;2023-02-10T00:46:00;102325.16;;;2.57;100.00
33075;BME280;19433;51.292;6.868;2023-02-10T00:48:26;102319.34;;;2.62;100.00
33075;BME280;19433;51.292;6.868;2023-02-10T00:50:51;102326.44;;;2.52;100.00
33075;BME280;19433;51.292;6.868;2023-02-10T00:53:16;102325.34;;;2.41;100.00
33075;BME280;19433;51.292;6.868;2023-02-10T00:55:41;102339.88;;;2.55;100.00
33075;BME280;19433;51.292;6.868;2023-02-10T00:58:07;102338.25;;;2.65;100.00
33075;BME280;19433;51.292;6.868;2023-02-10T01:00:32;102321.44;;;2.71;100.00
33075;BME280;19433;51.292;6.868;2023-02-10T01:02:57;102336.19;;;2.81;100.00
33075;BME280;19433;51.292;6.868;2023-02-10T01:05:23;102339.78;;;2.81;100.00
33075;BME280;19433;51.292;6.868;2023-02-10T01:07:48;102324.38;;;2.80;100.00
33075;BME280;19433;51.292;6.868;2023-02-10T01:10:13;102332.91;;;2.89;100.00
33075;BME280;19433;51.292;6.868;2023-02-10T01:12:39;102329.22;;;2.90;100.00
33075;BME280;19433;51.292;6.868;2023-02-10T01:15:04;102341.00;;;3.03;100.00
33075;BME280;19433;51.292;6.868;2023-02-10T01:17:29;102341.41;;;2.97;100.00
33075;BME280;19433;51.292;6.868;2023-02-10T01:19:55;102331.47;;;2.83;100.00
33075;BME280;19433;51.292;6.868;2023-02-10T01:22:21;102351.25;;;2.87;100.00
33075;BME280;19433;51.292;6.868;2023-02-10T01:24:46;102348.84;;;2.95;100.00
33075;BME280;19433;51.292;6.868;2023-02-10T01:27:11;102358.56;;;2.99;100.00
33075;BME280;19433;51.292;6.868;2023-02-10T01:29:37;102349.25;;;2.76;100.00
33075;BME280;19433;51.292;6.868;2023-02-10T01:32:02;102350.22;;;2.62;100.00
33075;BME280;19433;51.292;6.868;2023-02-10T01:34:27;102340.88;;;2.79;100.00
33075;BME280;19433;51.292;6.868;2023-02-10T01:36:52;102359.97;;;2.79;100.00
33075;BME280;19433;51.292;6.868;2023-02-10T01:39:18;102343.78;;;2.51;100.00
33075;BME280;19433;51.292;6.868;2023-02-10T01:41:44;102363.72;;;2.26;100.00
33075;BME280;19433;51.292;6.868;2023-02-10T01:46:43;102352.22;;;2.21;100.00
33075;BME280;19433;51.292;6.868;2023-02-10T01:49:11;102362.97;;;1.97;100.00
33075;BME280;19433;51.292;6.868;2023-02-10T01:51:45;102352.84;;;1.85;100.00
33075;BME280;19433;51.292;6.868;2023-02-10T01:54:14;102364.28;;;1.77;100.00
33075;BME280;19433;51.292;6.868;2023-02-10T01:56:41;102356.38;;;1.72;100.00
33075;BME280;19433;51.292;6.868;2023-02-10T01:59:07;102362.81;;;1.71;100.00
33075;BME280;19433;51.292;6.868;2023-02-10T02:01:33;102369.81;;;1.75;100.00
33075;BME280;19433;51.292;6.868;2023-02-10T02:03:58;102359.06;;;1.87;100.00
33075;BME280;19433;51.292;6.868;2023-02-10T02:06:23;102370.91;;;2.00;100.00
33075;BME280;19433;51.292;6.868;2023-02-10T02:08:49;102371.19;;;2.09;100.00
33075;BME280;19433;51.292;6.868;2023-02-10T02:11:26;102366.50;;;2.11;100.00
33075;BME280;19433;51.292;6.868;2023-02-10T02:17:07;102376.41;;;2.39;100.00
33075;BME280;19433;51.292;6.868;2023-02-10T02:23:05;102387.50;;;2.36;100.00
33075;BME280;19433;51.292;6.868;2023-02-10T02:33:55;102392.66;;;2.41;100.00
33075;BME280;19433;51.292;6.868;2023-02-10T02:36:27;102388.69;;;2.59;100.00
33075;BME280;19433;51.292;6.868;2023-02-10T02:38:59;102393.84;;;2.37;100.00
33075;BME280;19433;51.292;6.868;2023-02-10T02:41:26;102390.97;;;2.26;100.00
33075;BME280;19433;51.292;6.868;2023-02-10T02:43:51;102382.84;;;2.11;100.00
33075;BME280;19433;51.292;6.868;2023-02-10T02:54:27;102398.88;;;1.89;100.00
33075;BME280;19433;51.292;6.868;2023-02-10T02:59:45;102405.97;;;1.92;100.00
33075;BME280;19433;51.292;6.868;2023-02-10T03:02:14;102393.06;;;1.81;100.00
33075;BME280;19433;51.292;6.868;2023-02-10T03:04:41;102404.75;;;1.69;100.00
33075;BME280;19433;51.292;6.868;2023-02-10T03:07:07;102397.69;;;1.66;100.00
33075;BME280;19433;51.292;6.868;2023-02-10T03:09:32;102396.81;;;1.52;100.00
33075;BME280;19433;51.292;6.868;2023-02-10T03:11:58;102398.69;;;1.37;100.00
33075;BME280;19433;51.292;6.868;2023-02-10T03:14:24;102380.78;;;1.19;100.00
33075;BME280;19433;51.292;6.868;2023-02-10T03:16:50;102393.44;;;1.34;100.00
33075;BME280;19433;51.292;6.868;2023-02-10T03:19:15;102378.34;;;1.42;100.00
33075;BME280;19433;51.292;6.868;2023-02-10T03:21:41;102373.59;;;1.32;100.00
33075;BME280;19433;51.292;6.868;2023-02-10T03:24:06;102366.69;;;1.26;100.00
33075;BME280;19433;51.292;6.868;2023-02-10T03:26:34;102357.63;;;1.26;100.00
33075;BME280;19433;51.292;6.868;2023-02-10T03:28:59;102359.22;;;1.16;100.00
33075;BME280;19433;51.292;6.868;2023-02-10T03:31:24;102347.03;;;1.07;100.00
33075;BME280;19433;51.292;6.868;2023-02-10T03:33:49;102366.41;;;0.88;100.00
33075;BME280;19433;51.292;6.868;2023-02-10T03:36:15;102362.00;;;0.86;100.00
33075;BME280;19433;51.292;6.868;2023-02-10T03:38:40;102349.66;;;1.09;100.00
33075;BME280;19433;51.292;6.868;2023-02-10T03:41:06;102342.28;;;1.11;100.00
33075;BME280;19433;51.292;6.868;2023-02-10T03:43:31;102354.56;;;1.03;100.00
33075;BME280;19433;51.292;6.868;2023-02-10T03:46:01;102347.25;;;1.04;100.00
33075;BME280;19433;51.292;6.868;2023-02-10T03:48:27;102350.63;;;0.79;100.00
33075;BME280;19433;51.292;6.868;2023-02-10T03:50:56;102369.19;;;0.73;100.00
33075;BME280;19433;51.292;6.868;2023-02-10T03:53:22;102365.59;;;0.72;100.00
33075;BME280;19433;51.292;6.868;2023-02-10T03:55:47;102360.94;;;0.74;100.00
33075;BME280;19433;51.292;6.868;2023-02-10T03:58:13;102372.19;;;0.68;100.00
33075;BME280;19433;51.292;6.868;2023-02-10T04:00:39;102367.03;;;0.33;100.00
33075;BME280;19433;51.292;6.868;2023-02-10T04:03:04;102388.38;;;0.25;100.00
33075;BME280;19433;51.292;6.868;2023-02-10T04:05:29;102383.84;;;0.10;100.00
33075;BME280;19433;51.292;6.868;2023-02-10T04:07:54;102381.50;;;0.04;100.00
33075;BME280;19433;51.292;6.868;2023-02-10T04:10:20;102377.13;;;-0.30;100.00
33075;BME280;19433;51.292;6.868;2023-02-10T04:12:45;102385.91;;;-0.41;100.00
33075;BME280;19433;51.292;6.868;2023-02-10T04:15:11;102387.91;;;-0.28;100.00
33075;BME280;19433;51.292;6.868;2023-02-10T04:17:36;102387.03;;;-0.29;100.00
33075;BME280;19433;51.292;6.868;2023-02-10T04:20:02;102384.16;;;-0.42;100.00
33075;BME280;19433;51.292;6.868;2023-02-10T04:22:27;102389.41;;;-0.23;100.00
33075;BME280;19433;51.292;6.868;2023-02-10T04:24:52;102376.47;;;-0.33;100.00
33075;BME280;19433;51.292;6.868;2023-02-10T04:27:18;102386.69;;;-0.23;100.00
33075;BME280;19433;51.292;6.868;2023-02-10T04:29:43;102398.09;;;-0.16;100.00
33075;BME280;19433;51.292;6.868;2023-02-10T04:32:08;102392.84;;;-0.19;100.00
33075;BME280;19433;51.292;6.868;2023-02-10T04:34:34;102393.00;;;-0.22;100.00
33075;BME280;19433;51.292;6.868;2023-02-10T04:37:00;102403.25;;;-0.12;100.00
33075;BME280;19433;51.292;6.868;2023-02-10T04:39:25;102397.00;;;0.02;100.00
33075;BME280;19433;51.292;6.868;2023-02-10T04:41:50;102400.00;;;0.13;100.00
33075;BME280;19433;51.292;6.868;2023-02-10T04:44:16;102406.78;;;0.20;100.00
33075;BME280;19433;51.292;6.868;2023-02-10T04:46:41;102394.66;;;0.12;100.00
33075;BME280;19433;51.292;6.868;2023-02-10T04:49:06;102409.91;;;0.14;100.00
33075;BME280;19433;51.292;6.868;2023-02-10T04:51:31;102406.75;;;-0.10;100.00
33075;BME280;19433;51.292;6.868;2023-02-10T04:53:57;102408.66;;;-0.12;100.00
33075;BME280;19433;51.292;6.868;2023-02-10T04:56:22;102397.09;;;-0.15;100.00
33075;BME280;19433;51.292;6.868;2023-02-10T04:58:47;102401.84;;;-0.19;100.00
33075;BME280;19433;51.292;6.868;2023-02-10T05:01:13;102405.44;;;-0.18;100.00
33075;BME280;19433;51.292;6.868;2023-02-10T05:03:38;102399.41;;;-0.23;100.00
33075;BME280;19433;51.292;6.868;2023-02-10T05:06:08;102395.88;;;-0.25;100.00
33075;BME280;19433;51.292;6.868;2023-02-10T05:08:34;102394.84;;;-0.23;100.00
33075;BME280;19433;51.292;6.868;2023-02-10T05:11:01;102403.94;;;-0.24;100.00
33075;BME280;19433;51.292;6.868;2023-02-10T05:13:26;102412.44;;;-0.14;100.00
33075;BME280;19433;51.292;6.868;2023-02-10T05:15:52;102402.72;;;-0.03;100.00
33075;BME280;19433;51.292;6.868;2023-02-10T05:18:17;102394.66;;;0.12;100.00
33075;BME280;19433;51.292;6.868;2023-02-10T05:20:42;102388.75;;;0.04;100.00
33075;BME280;19433;51.292;6.868;2023-02-10T05:23:07;102385.94;;;0.21;100.00
33075;BME280;19433;51.292;6.868;2023-02-10T05:25:33;102393.34;;;0.33;100.00
33075;BME280;19433;51.292;6.868;2023-02-10T05:27:58;102403.09;;;0.37;100.00
33075;BME280;19433;51.292;6.868;2023-02-10T05:30:23;102398.69;;;0.34;100.00
33075;BME280;19433;51.292;6.868;2023-02-10T05:32:48;102406.44;;;0.26;100.00
33075;BME280;19433;51.292;6.868;2023-02-10T05:35:14;102404.44;;;0.30;100.00
33075;BME280;19433;51.292;6.868;2023-02-10T05:37:39;102411.28;;;0.21;100.00
33075;BME280;19433;51.292;6.868;2023-02-10T05:40:05;102420.53;;;0.33;100.00
33075;BME280;19433;51.292;6.868;2023-02-10T05:42:30;102411.06;;;0.40;100.00
33075;BME280;19433;51.292;6.868;2023-02-10T05:44:56;102430.44;;;0.64;100.00
33075;BME280;19433;51.292;6.868;2023-02-10T05:47:21;102436.41;;;0.70;100.00
33075;BME280;19433;51.292;6.868;2023-02-10T05:49:46;102423.91;;;0.82;100.00
33075;BME280;19433;51.292;6.868;2023-02-10T05:52:12;102422.41;;;0.77;100.00
33075;BME280;19433;51.292;6.868;2023-02-10T05:54:37;102427.19;;;0.73;100.00
33075;BME280;19433;51.292;6.868;2023-02-10T05:57:03;102438.13;;;1.01;100.00
33075;BME280;19433;51.292;6.868;2023-02-10T05:59:28;102439.47;;;0.94;100.00
33075;BME280;19433;51.292;6.868;2023-02-10T06:01:54;102436.19;;;0.89;100.00
33075;BME280;19433;51.292;6.868;2023-02-10T06:04:19;102431.22;;;0.96;100.00
33075;BME280;19433;51.292;6.868;2023-02-10T06:06:44;102428.22;;;1.00;100.00
33075;BME280;19433;51.292;6.868;2023-02-10T06:09:10;102438.50;;;1.10;100.00
33075;BME280;19433;51.292;6.868;2023-02-10T06:11:35;102431.81;;;1.15;100.00
33075;BME280;19433;51.292;6.868;2023-02-10T06:14:01;102440.38;;;1.23;100.00
33075;BME280;19433;51.292;6.868;2023-02-10T06:16:26;102444.84;;;1.24;100.00
33075;BME280;19433;51.292;6.868;2023-02-10T06:18:51;102443.47;;;1.03;100.00
33075;BME280;19433;51.292;6.868;2023-02-10T06:21:17;102422.97;;;0.97;100.00
33075;BME280;19433;51.292;6.868;2023-02-10T06:23:43;102431.72;;;1.02;100.00
33075;BME280;19433;51.292;6.868;2023-02-10T06:26:08;102445.41;;;1.01;100.00
33075;BME280;19433;51.292;6.868;2023-02-10T06:28:33;102430.06;;;1.00;100.00
33075;BME280;19433;51.292;6.868;2023-02-10T06:33:34;102449.38;;;0.95;100.00
33075;BME280;19433;51.292;6.868;2023-02-10T06:36:05;102458.31;;;0.83;100.00
33075;BME280;19433;51.292;6.868;2023-02-10T06:38:33;102464.50;;;0.71;100.00
33075;BME280;19433;51.292;6.868;2023-02-10T06:40:59;102464.75;;;0.66;100.00
33075;BME280;19433;51.292;6.868;2023-02-10T06:46:24;102457.22;;;0.72;100.00
33075;BME280;19433;51.292;6.868;2023-02-10T06:52:14;102471.81;;;0.85;100.00
33075;BME280;19433;51.292;6.868;2023-02-10T07:10:11;102456.72;;;1.23;100.00
33075;BME280;19433;51.292;6.868;2023-02-10T07:16:06;102454.38;;;1.17;100.00
33075;BME280;19433;51.292;6.868;2023-02-10T07:21:49;102464.31;;;0.74;100.00
33075;BME280;19433;51.292;6.868;2023-02-10T07:24:16;102456.88;;;0.62;100.00
33075;BME280;19433;51.292;6.868;2023-02-10T07:26:41;102452.13;;;0.65;100.00
33075;BME280;19433;51.292;6.868;2023-02-10T07:29:18;102462.56;;;0.73;100.00
33075;BME280;19433;51.292;6.868;2023-02-10T07:35:12;102472.00;;;0.82;100.00
33075;BME280;19433;51.292;6.868;2023-02-10T07:37:58;102464.78;;;0.81;100.00
33075;BME280;19433;51.292;6.868;2023-02-10T07:40:23;102471.63;;;0.88;100.00
33075;BME280;19433;51.292;6.868;2023-02-10T07:42:48;102470.53;;;0.76;100.00
33075;BME280;19433;51.292;6.868;2023-02-10T07:45:34;102473.94;;;0.80;100.00
33075;BME280;19433;51.292;6.868;2023-02-10T07:48:00;102480.34;;;0.79;100.00
33075;BME280;19433;51.292;6.868;2023-02-10T07:50:26;102473.69;;;0.68;100.00
33075;BME280;19433;51.292;6.868;2023-02-10T07:52:51;102476.94;;;0.75;100.00
33075;BME280;19433;51.292;6.868;2023-02-10T07:57:52;102476.72;;;0.78;100.00
33075;BME280;19433;51.292;6.868;2023-02-10T08:00:18;102481.13;;;0.81;100.00
33075;BME280;19433;51.292;6.868;2023-02-10T08:02:53;102474.50;;;0.70;100.00
33075;BME280;19433;51.292;6.868;2023-02-10T08:05:19;102486.50;;;0.96;100.00
33075;BME280;19433;51.292;6.868;2023-02-10T08:07:44;102481.69;;;1.01;100.00
33075;BME280;19433;51.292;6.868;2023-02-10T08:10:09;102494.38;;;1.31;100.00
33075;BME280;19433;51.292;6.868;2023-02-10T08:12:35;102497.09;;;1.73;100.00
33075;BME280;19433;51.292;6.868;2023-02-10T08:15:00;102496.16;;;2.16;100.00
33075;BME280;19433;51.292;6.868;2023-02-10T08:17:27;102500.63;;;2.17;100.00
33075;BME280;19433;51.292;6.868;2023-02-10T08:19:52;102500.75;;;2.15;100.00
33075;BME280;19433;51.292;6.868;2023-02-10T08:22:18;102488.22;;;2.39;100.00
33075;BME280;19433;51.292;6.868;2023-02-10T08:24:49;102506.91;;;2.45;100.00
33075;BME280;19433;51.292;6.868;2023-02-10T08:27:14;102515.94;;;2.46;100.00
33075;BME280;19433;51.292;6.868;2023-02-10T08:29:40;102511.84;;;2.26;100.00
33075;BME280;19433;51.292;6.868;2023-02-10T08:32:05;102518.56;;;2.21;100.00
33075;BME280;19433;51.292;6.868;2023-02-10T08:34:30;102515.34;;;2.14;100.00
33075;BME280;19433;51.292;6.868;2023-02-10T08:36:56;102517.22;;;1.99;100.00
33075;BME280;19433;51.292;6.868;2023-02-10T08:42:57;102514.38;;;2.15;100.00
33075;BME280;19433;51.292;6.868;2023-02-10T08:45:23;102508.03;;;2.29;100.00
33075;BME280;19433;51.292;6.868;2023-02-10T08:47:48;102512.28;;;2.33;100.00
33075;BME280;19433;51.292;6.868;2023-02-10T08:50:14;102507.66;;;2.47;100.00
33075;BME280;19433;51.292;6.868;2023-02-10T08:52:39;102517.88;;;2.58;100.00
33075;BME280;19433;51.292;6.868;2023-02-10T09:10:39;102521.34;;;3.52;99.83
33075;BME280;19433;51.292;6.868;2023-02-10T09:13:05;102517.66;;;3.66;99.47
33075;BME280;19433;51.292;6.868;2023-02-10T09:15:30;102518.41;;;3.55;99.97
33075;BME280;19433;51.292;6.868;2023-02-10T09:17:58;102532.81;;;3.82;100.00
33075;BME280;19433;51.292;6.868;2023-02-10T09:20:23;102528.16;;;4.34;97.23
33075;BME280;19433;51.292;6.868;2023-02-10T09:22:49;102536.94;;;4.26;95.95
33075;BME280;19433;51.292;6.868;2023-02-10T09:25:14;102530.81;;;4.22;95.73
33075;BME280;19433;51.292;6.868;2023-02-10T09:27:40;102526.72;;;4.41;95.23
33075;BME280;19433;51.292;6.868;2023-02-10T09:30:05;102550.75;;;4.85;93.57
33075;BME280;19433;51.292;6.868;2023-02-10T09:35:56;102546.97;;;6.02;89.10
33075;BME280;19433;51.292;6.868;2023-02-10T09:38:34;102555.94;;;6.49;85.49
33075;BME280;19433;51.292;6.868;2023-02-10T09:44:29;102568.66;;;10.04;69.83
33075;BME280;19433;51.292;6.868;2023-02-10T09:47:08;102562.66;;;10.55;64.31
33075;BME280;19433;51.292;6.868;2023-02-10T09:53:07;102565.53;;;10.90;62.01
33075;BME280;19433;51.292;6.868;2023-02-10T09:55:38;102577.59;;;10.89;62.86
33075;BME280;19433;51.292;6.868;2023-02-10T09:58:30;102577.75;;;9.48;65.86
33075;BME280;19433;51.292;6.868;2023-02-10T10:03:37;102570.50;;;8.39;71.40
33075;BME280;19433;51.292;6.868;2023-02-10T10:06:10;102548.31;;;9.00;70.21
33075;BME280;19433;51.292;6.868;2023-02-10T10:09:00;102549.53;;;8.67;72.11
33075;BME280;19433;51.292;6.868;2023-02-10T10:11:35;102559.31;;;10.24;65.15
33075;BME280;19433;51.292;6.868;2023-02-10T10:14:02;102557.84;;;11.73;61.64
33075;BME280;19433;51.292;6.868;2023-02-10T10:22:56;102560.16;;;9.87;63.49
33075;BME280;19433;51.292;6.868;2023-02-10T10:25:49;102561.63;;;10.29;63.05
33075;BME280;19433;51.292;6.868;2023-02-10T10:33:49;102560.97;;;11.96;56.64
33075;BME280;19433;51.292;6.868;2023-02-10T10:36:23;102585.91;;;13.56;53.22
33075;BME280;19433;51.292;6.868;2023-02-10T10:38:58;102580.69;;;13.53;51.21
33075;BME280;19433;51.292;6.868;2023-02-10T10:41:29;102577.41;;;12.91;53.13
33075;BME280;19433;51.292;6.868;2023-02-10T10:43:56;102577.75;;;14.67;49.55
33075;BME280;19433;51.292;6.868;2023-02-10T10:46:34;102581.72;;;15.88;44.96
33075;BME280;19433;51.292;6.868;2023-02-10T10:49:01;102589.47;;;16.30;44.23
33075;BME280;19433;51.292;6.868;2023-02-10T10:51:27;102566.94;;;14.80;45.88
33075;BME280;19433;51.292;6.868;2023-02-10T10:53:55;102576.84;;;15.36;45.05
33075;BME280;19433;51.292;6.868;2023-02-10T10:56:37;102574.72;;;15.69;44.34
33075;BME280;19433;51.292;6.868;2023-02-10T10:59:33;102565.63;;;15.90;43.42
33075;BME280;19433;51.292;6.868;2023-02-10T11:02:19;102566.13;;;17.11;41.06
33075;BME280;19433;51.292;6.868;2023-02-10T11:04:46;102569.06;;;15.55;42.18
33075;BME280;19433;51.292;6.868;2023-02-10T11:07:22;102564.34;;;15.32;43.76
33075;BME280;19433;51.292;6.868;2023-02-10T11:09:52;102557.31;;;15.13;44.49
33075;BME280;19433;51.292;6.868;2023-02-10T11:12:47;102554.44;;;15.53;43.03
33075;BME280;19433;51.292;6.868;2023-02-10T11:17:53;102547.00;;;13.97;46.68
33075;BME280;19433;51.292;6.868;2023-02-10T11:20:34;102550.59;;;14.69;46.05
33075;BME280;19433;51.292;6.868;2023-02-10T11:23:18;102536.19;;;13.13;48.46
33075;BME280;19433;51.292;6.868;2023-02-10T11:25:54;102537.81;;;12.65;49.61
33075;BME280;19433;51.292;6.868;2023-02-10T11:28:24;102532.19;;;11.45;53.50
33075;BME280;19433;51.292;6.868;2023-02-10T11:31:00;102532.19;;;11.10;55.74
33075;BME280;19433;51.292;6.868;2023-02-10T11:33:29;102528.78;;;11.34;56.08
33075;BME280;19433;51.292;6.868;2023-02-10T11:36:01;102521.63;;;11.84;53.06
33075;BME280;19433;51.292;6.868;2023-02-10T11:38:26;102515.56;;;12.15;51.81
33075;BME280;19433;51.292;6.868;2023-02-10T11:40:56;102523.13;;;12.89;50.64
33075;BME280;19433;51.292;6.868;2023-02-10T11:43:29;102522.72;;;13.75;48.59
33075;BME280;19433;51.292;6.868;2023-02-10T11:46:01;102515.56;;;15.36;44.18
33075;BME280;19433;51.292;6.868;2023-02-10T11:48:29;102516.81;;;15.34;42.92
33075;BME280;19433;51.292;6.868;2023-02-10T11:51:20;102526.38;;;17.09;40.72
33075;BME280;19433;51.292;6.868;2023-02-10T11:53:46;102516.03;;;19.05;36.26
33075;BME280;19433;51.292;6.868;2023-02-10T12:01:37;102514.47;;;18.48;35.08
33075;BME280;19433;51.292;6.868;2023-02-10T12:07:00;102512.91;;;18.80;33.40
33075;BME280;19433;51.292;6.868;2023-02-10T12:09:36;102507.16;;;19.02;33.92
33075;BME280;19433;51.292;6.868;2023-02-10T12:18:24;102501.13;;;18.98;32.42
33075;BME280;19433;51.292;6.868;2023-02-10T12:21:18;102479.25;;;18.67;32.96
33075;BME280;19433;51.292;6.868;2023-02-10T12:29:21;102465.38;;;18.93;32.49
33075;BME280;19433;51.292;6.868;2023-02-10T12:38:03;102458.34;;;21.68;28.51
33075;BME280;19433;51.292;6.868;2023-02-10T12:46:20;102452.47;;;17.54;33.87
33075;BME280;19433;51.292;6.868;2023-02-10T12:54:13;102446.09;;;16.61;35.35
33075;BME280;19433;51.292;6.868;2023-02-10T12:57:05;102431.38;;;15.11;39.08
33075;BME280;19433;51.292;6.868;2023-02-10T12:59:59;102430.78;;;13.29;42.73
33075;BME280;19433;51.292;6.868;2023-02-10T13:02:36;102417.94;;;11.87;47.58
33075;BME280;19433;51.292;6.868;2023-02-10T13:05:08;102418.81;;;11.36;49.31
33075;BME280;19433;51.292;6.868;2023-02-10T13:07:51;102417.97;;;11.17;51.04
33075;BME280;19433;51.292;6.868;2023-02-10T13:10:42;102421.34;;;12.15;49.95
33075;BME280;19433;51.292;6.868;2023-02-10T13:13:24;102422.06;;;11.83;50.44
33075;BME280;19433;51.292;6.868;2023-02-10T13:16:12;102420.38;;;11.38;51.09
33075;BME280;19433;51.292;6.868;2023-02-10T13:18:51;102416.28;;;10.99;52.72
33075;BME280;19433;51.292;6.868;2023-02-10T13:22:22;102419.34;;;10.60;54.15
33075;BME280;19433;51.292;6.868;2023-02-10T13:24:33;102414.91;;;9.77;57.79
33075;BME280;19433;51.292;6.868;2023-02-10T13:27:39;102406.19;;;9.25;60.54
33075;BME280;19433;51.292;6.868;2023-02-10T13:39:56;102383.03;;;8.41;65.17
33075;BME280;19433;51.292;6.868;2023-02-10T13:42:31;102382.88;;;8.33;65.72
33075;BME280;19433;51.292;6.868;2023-02-10T13:45:23;102392.34;;;8.40;64.64
33075;BME280;19433;51.292;6.868;2023-02-10T13:51:05;102389.72;;;8.48;64.32
33075;BME280;19433;51.292;6.868;2023-02-10T13:59:22;102380.25;;;8.22;65.50
33075;BME280;19433;51.292;6.868;2023-02-10T14:02:21;102370.13;;;8.32;65.59
33075;BME280;19433;51.292;6.868;2023-02-10T14:14:51;102357.16;;;8.03;64.66
33075;BME280;19433;51.292;6.868;2023-02-10T14:18:37;102365.00;;;8.08;64.88
33075;BME280;19433;51.292;6.868;2023-02-10T14:23:55;102360.28;;;8.68;63.02
33075;BME280;19433;51.292;6.868;2023-02-10T14:29:14;102369.56;;;8.76;59.53
33075;BME280;19433;51.292;6.868;2023-02-10T14:31:42;102369.97;;;8.43;60.56
33075;BME280;19433;51.292;6.868;2023-02-10T14:34:28;102359.44;;;8.38;61.46
33075;BME280;19433;51.292;6.868;2023-02-10T14:40:33;102358.69;;;8.36;60.80
33075;BME280;19433;51.292;6.868;2023-02-10T14:43:00;102362.72;;;8.23;60.86
33075;BME280;19433;51.292;6.868;2023-02-10T14:45:27;102349.78;;;8.04;61.37
33075;BME280;19433;51.292;6.868;2023-02-10T14:47:54;102358.19;;;8.02;60.93
33075;BME280;19433;51.292;6.868;2023-02-10T14:50:31;102347.66;;;7.67;61.86
33075;BME280;19433;51.292;6.868;2023-02-10T14:52:58;102350.50;;;7.56;62.69
33075;BME280;19433;51.292;6.868;2023-02-10T14:55:27;102336.41;;;7.40;64.27
33075;BME280;19433;51.292;6.868;2023-02-10T14:58:18;102354.69;;;7.51;64.73
33075;BME280;19433;51.292;6.868;2023-02-10T15:01:05;102357.50;;;7.70;64.10
33075;BME280;19433;51.292;6.868;2023-02-10T15:03:50;102361.25;;;7.59;64.74
33075;BME280;19433;51.292;6.868;2023-02-10T15:06:18;102357.88;;;7.56;64.39
33075;BME280;19433;51.292;6.868;2023-02-10T15:11:14;102354.13;;;7.26;66.06
33075;BME280;19433;51.292;6.868;2023-02-10T15:14:02;102347.72;;;7.16;66.59
33075;BME280;19433;51.292;6.868;2023-02-10T15:16:27;102348.31;;;7.20;67.20
33075;BME280;19433;51.292;6.868;2023-02-10T15:18:53;102336.22;;;7.01;66.77
33075;BME280;19433;51.292;6.868;2023-02-10T15:21:45;102363.63;;;7.13;67.31
33075;BME280;19433;51.292;6.868;2023-02-10T15:27:36;102349.97;;;7.01;67.69
33075;BME280;19433;51.292;6.868;2023-02-10T15:30:07;102350.66;;;7.03;67.89
33075;BME280;19433;51.292;6.868;2023-02-10T15:32:33;102361.53;;;7.05;67.78
33075;BME280;19433;51.292;6.868;2023-02-10T15:35:06;102366.16;;;7.04;68.31
33075;BME280;19433;51.292;6.868;2023-02-10T15:37:32;102345.88;;;6.96;68.14
33075;BME280;19433;51.292;6.868;2023-02-10T15:40:02;102351.09;;;6.78;68.89
33075;BME280;19433;51.292;6.868;2023-02-10T15:42:29;102349.56;;;6.64;69.69
33075;BME280;19433;51.292;6.868;2023-02-10T15:45:03;102340.56;;;6.62;71.07
33075;BME280;19433;51.292;6.868;2023-02-10T15:47:45;102341.13;;;6.56;71.55
33075;BME280;19433;51.292;6.868;2023-02-10T15:50:12;102334.75;;;6.56;71.81
33075;BME280;19433;51.292;6.868;2023-02-10T15:52:42;102334.53;;;6.48;72.32
33075;BME280;19433;51.292;6.868;2023-02-10T15:58:10;102336.97;;;6.41;73.30
33075;BME280;19433;51.292;6.868;2023-02-10T16:00:37;102335.34;;;6.39;73.60
33075;BME280;19433;51.292;6.868;2023-02-10T16:03:04;102329.63;;;6.30;74.00
33075;BME280;19433;51.292;6.868;2023-02-10T16:05:42;102329.19;;;6.14;74.82
33075;BME280;19433;51.292;6.868;2023-02-10T16:08:21;102329.28;;;6.24;74.84
33075;BME280;19433;51.292;6.868;2023-02-10T16:10:47;102319.22;;;6.13;75.46
33075;BME280;19433;51.292;6.868;2023-02-10T16:16:22;102322.91;;;5.91;76.23
33075;BME280;19433;51.292;6.868;2023-02-10T16:18:57;102330.00;;;5.83;76.71
33075;BME280;19433;51.292;6.868;2023-02-10T16:21:22;102314.44;;;5.72;76.83
33075;BME280;19433;51.292;6.868;2023-02-10T16:23:47;102320.19;;;5.69;76.98